createdAt,value
2022-09-15T00:04:56.841Z,79
2022-09-15T00:09:56.847Z,30.8
2022-09-15T00:14:56.881Z,22.8
2022-09-15T00:25:24.357Z,14.8
2022-09-15T00:29:57.468Z,14.7
2022-09-15T00:34:56.982Z,14.8
2022-09-15T00:39:56.922Z,14.8
2022-09-15T00:44:56.908Z,14.8
2022-09-15T00:49:59.876Z,17.1
2022-09-15T00:54:56.881Z,17.1
2022-09-15T00:59:56.871Z,17.1
2022-09-15T01:04:59.894Z,17.5
2022-09-15T01:09:56.823Z,18.2
2022-09-15T01:14:56.866Z,17.5
2022-09-15T01:19:56.833Z,17.5
2022-09-15T01:24:56.853Z,16.9
2022-09-15T01:29:56.819Z,16.9
2022-09-15T01:34:56.862Z,16.9
2022-09-15T01:39:56.938Z,16.9
2022-09-15T01:44:56.844Z,16.8
2022-09-15T01:49:56.927Z,16.9
2022-09-15T01:54:56.932Z,16.8
2022-09-15T06:19:56.981Z,9.8
2022-09-15T06:24:57.632Z,9.5
2022-09-15T06:29:56.971Z,9.8
2022-09-15T06:34:57.020Z,9.95
2022-09-15T06:39:57.022Z,10.1
2022-09-15T06:44:56.976Z,10.3
2022-09-15T06:49:56.947Z,10.1
2022-09-15T06:54:56.956Z,10.5
2022-09-15T06:59:56.945Z,10.6
2022-09-15T07:04:57.027Z,10.6
2022-09-15T07:09:56.953Z,11.2
2022-09-15T07:14:56.963Z,11.2
2022-09-15T07:19:56.975Z,14.3
2022-09-15T07:24:56.986Z,14.3
2022-09-15T07:29:57.041Z,14.3
2022-09-15T07:34:59.975Z,14.2
2022-09-15T07:39:57.066Z,14.2
2022-09-15T07:44:57.031Z,13
2022-09-15T07:49:57.052Z,11.5
2022-09-15T07:54:56.988Z,6.8
2022-09-15T07:59:57.006Z,6.8
2022-09-15T08:04:56.966Z,6.1
2022-09-15T08:09:56.996Z,5.8
2022-09-15T08:14:56.991Z,5.1
2022-09-15T08:19:56.962Z,2.9
2022-09-15T08:24:57.028Z,2.9
2022-09-15T08:29:57.066Z,2.8
2022-09-15T08:34:56.995Z,2.7
2022-09-15T08:39:56.996Z,2.7
2022-09-15T08:44:56.991Z,2.7
2022-09-15T08:49:56.990Z,2.7
2022-09-15T08:54:56.971Z,2.7
2022-09-15T08:59:56.976Z,2.7
2022-09-15T09:04:57.045Z,2.7
2022-09-15T09:09:57.011Z,2.8
2022-09-15T09:14:57.027Z,2.7
2022-09-15T09:19:56.963Z,3
2022-09-15T09:24:56.990Z,4.6
2022-09-15T09:29:56.975Z,4.6
2022-09-15T09:34:57.029Z,4.6
2022-09-15T09:39:57.079Z,2.9
2022-09-15T09:44:57.011Z,2.8
2022-09-15T09:49:57.046Z,2.8
2022-09-15T09:54:56.984Z,2.8
2022-09-15T09:59:57.015Z,2.8
2022-09-15T10:04:57.106Z,2.9
2022-09-15T10:09:57.115Z,3.4
2022-09-15T10:14:57.018Z,3.4
2022-09-15T10:19:57.049Z,3.5
2022-09-15T10:24:57.023Z,4.2
2022-09-15T10:29:57.042Z,5.1
2022-09-15T10:34:57.028Z,5.9
2022-09-15T10:39:57.104Z,6.2
2022-09-15T10:44:57.025Z,6.2
2022-09-15T10:49:57.034Z,9.5
2022-09-15T10:54:57.021Z,9.5
2022-09-15T10:59:57.058Z,9.5
2022-09-15T11:04:57.068Z,5.2
2022-09-15T11:09:57.040Z,3.2
2022-09-15T11:14:57.033Z,3.2
2022-09-15T11:29:57.150Z,3.3
2022-09-15T11:34:57.032Z,4.55
2022-09-15T11:39:57.131Z,5.4
2022-09-15T11:44:57.053Z,5.6
2022-09-15T11:49:57.057Z,5.8
2022-09-15T11:54:57.043Z,6
2022-09-15T11:59:57.037Z,5.8
2022-09-15T12:04:57.120Z,6.2
2022-09-15T12:09:57.054Z,7.3
2022-09-15T12:14:57.091Z,7.5
2022-09-15T12:19:57.082Z,7.3
2022-09-15T12:25:01.085Z,7.3
2022-09-15T12:29:57.068Z,8.2
2022-09-15T12:34:57.086Z,8.3
2022-09-15T12:39:57.166Z,8.3
2022-09-15T12:44:57.058Z,10.3
2022-09-15T12:49:57.153Z,10.3
2022-09-15T12:54:57.012Z,13.4
2022-09-15T12:59:57.134Z,11.7
2022-09-15T13:04:57.004Z,10.3
2022-09-15T13:09:57.099Z,10.2
2022-09-15T13:14:57.142Z,10.3
2022-09-15T13:19:57.028Z,10.2
2022-09-15T13:25:01.448Z,10.4
2022-09-15T13:29:57.062Z,10.2
2022-09-15T13:35:03.486Z,9.7
2022-09-15T13:39:57.051Z,9.7
2022-09-15T13:44:57.090Z,10.3
2022-09-15T13:49:57.123Z,10.3
2022-09-15T13:54:57.108Z,10.5
2022-09-15T13:59:57.083Z,10.5
2022-09-15T14:04:57.129Z,11.8
2022-09-15T14:09:57.112Z,12.5
2022-09-15T14:14:57.083Z,12.9
2022-09-15T14:19:57.074Z,12.9
2022-09-15T14:24:57.307Z,13.9
2022-09-15T14:29:57.136Z,14
2022-09-15T14:34:57.230Z,14
2022-09-15T14:39:57.225Z,13.9
2022-09-15T14:49:57.175Z,10.4
2022-09-15T14:54:57.061Z,8.4
2022-09-15T14:59:57.150Z,8.4
2022-09-15T15:04:57.134Z,7.6
2022-09-15T15:09:57.154Z,7.6
2022-09-15T15:14:57.136Z,7
2022-09-15T15:19:57.306Z,6.7
2022-09-15T15:24:57.258Z,6.8
2022-09-15T15:29:57.172Z,6.8
2022-09-15T15:34:57.104Z,6.8
2022-09-15T15:39:57.388Z,7
2022-09-15T15:44:57.213Z,7
2022-09-15T15:50:13.119Z,7.1
2022-09-15T15:54:57.125Z,7.8
2022-09-15T15:59:57.088Z,7.8
2022-09-15T16:04:57.170Z,7.8
2022-09-15T16:09:57.160Z,7.8
2022-09-15T16:14:57.167Z,7.8
2022-09-15T16:19:57.099Z,7.8
2022-09-15T16:24:57.383Z,7.8
2022-09-15T16:29:57.147Z,7.5
2022-09-15T16:34:57.113Z,7.8
2022-09-15T16:39:57.421Z,8
2022-09-15T16:44:57.181Z,8
2022-09-15T16:49:57.196Z,9.6
2022-09-15T16:54:57.153Z,11.7
2022-09-15T16:59:57.185Z,11.8
2022-09-15T17:04:57.194Z,11.8
2022-09-15T17:09:57.139Z,11.8
2022-09-15T17:14:57.145Z,9.6
2022-09-15T17:19:57.188Z,9.5
2022-09-15T17:24:57.280Z,9.4
2022-09-15T17:29:57.206Z,9.1
2022-09-15T17:34:57.172Z,9
2022-09-15T17:40:00.278Z,8.8
2022-09-15T17:44:57.178Z,8.8
2022-09-15T17:49:57.190Z,9.1
2022-09-15T17:54:57.146Z,9.1
2022-09-15T17:59:57.209Z,9.1
2022-09-15T18:04:57.186Z,8.8
2022-09-15T18:09:57.193Z,10.6
2022-09-15T18:14:57.203Z,10.6
2022-09-15T18:19:57.270Z,10.2
2022-09-15T18:24:57.157Z,10.2
2022-09-15T18:29:57.202Z,10.2
2022-09-15T18:34:57.181Z,10.6
2022-09-15T18:39:57.167Z,10.8
2022-09-15T18:44:57.250Z,11.2
2022-09-15T18:49:57.219Z,11.3
2022-09-15T18:54:57.175Z,11.8
2022-09-15T18:59:57.242Z,12
2022-09-15T19:04:57.189Z,12
2022-09-15T19:09:57.223Z,12
2022-09-15T19:14:57.233Z,12
2022-09-15T19:19:57.256Z,12.3
2022-09-15T19:24:57.210Z,12.5
2022-09-15T19:29:57.248Z,13.2
2022-09-15T19:34:57.266Z,13.4
2022-09-15T19:39:57.215Z,15.4
2022-09-15T19:44:57.225Z,15.4
2022-09-15T19:49:57.217Z,18.1
2022-09-15T19:54:57.227Z,18.1
2022-09-15T19:59:57.230Z,15.4
2022-09-15T20:04:57.260Z,14.3
2022-09-15T20:09:57.380Z,14.3
2022-09-15T20:14:57.224Z,14.3
2022-09-15T20:19:57.230Z,14.3
2022-09-15T20:24:57.517Z,14.3
2022-09-15T20:29:57.233Z,14.3
2022-09-15T20:34:57.226Z,15
2022-09-15T20:39:57.294Z,16.9
2022-09-15T20:44:57.327Z,16.9
2022-09-15T20:49:57.287Z,16.9
2022-09-15T20:54:57.280Z,16.9
2022-09-15T20:59:57.275Z,16
2022-09-15T21:04:57.229Z,16
2022-09-15T21:09:57.323Z,16
2022-09-15T21:14:57.277Z,16
2022-09-15T21:19:57.286Z,16.5
2022-09-15T21:24:57.281Z,17.2
2022-09-15T21:29:57.236Z,17.5
2022-09-15T21:34:57.301Z,17.8
2022-09-15T21:39:57.369Z,19.8
2022-09-15T21:44:57.281Z,20.9
2022-09-15T21:49:57.326Z,20.9
2022-09-15T21:54:57.246Z,22.2
2022-09-15T21:59:57.478Z,22.2
2022-09-15T22:04:57.259Z,23
2022-09-15T22:09:57.298Z,22.2
2022-09-15T22:14:57.416Z,23
2022-09-15T22:19:57.243Z,24
2022-09-15T22:24:57.305Z,24
2022-09-15T22:29:57.315Z,24.7
2022-09-15T22:34:57.307Z,24.8
2022-09-15T22:40:00.443Z,25.2
2022-09-15T22:44:57.308Z,25.7
2022-09-15T22:49:57.340Z,26.8
2022-09-15T22:54:57.331Z,25.7
2022-09-15T22:59:57.387Z,26.8
2022-09-15T23:04:57.327Z,27.9
2022-09-15T23:09:57.313Z,27.9
2022-09-15T23:14:57.360Z,27.9
2022-09-15T23:19:57.316Z,26.8
2022-09-15T23:24:57.416Z,26.7
2022-09-15T23:29:57.254Z,27.9
2022-09-15T23:34:57.367Z,27
2022-09-15T23:39:57.345Z,27
2022-09-15T23:44:57.385Z,26.7
2022-09-15T23:49:57.337Z,27
2022-09-15T23:54:57.319Z,29.6
2022-09-15T23:59:57.357Z,29.6
